sensor_id;sensor_type;location;lat;lon;timestamp;P1;durP1;ratioP1;P2;durP2;ratioP2
27412;SDS011;14871;52.702;5.230;2023-03-01T00:01:09;25.25;;;17.30;;
27412;SDS011;14871;52.702;5.230;2023-03-01T00:03:37;25.10;;;17.23;;
27412;SDS011;14871;52.702;5.230;2023-03-01T00:06:03;20.90;;;17.15;;
27412;SDS011;14871;52.702;5.230;2023-03-01T00:08:29;23.45;;;17.10;;
27412;SDS011;14871;52.702;5.230;2023-03-01T00:11:02;19.65;;;16.52;;
27412;SDS011;14871;52.702;5.230;2023-03-01T00:13:33;21.15;;;16.85;;
27412;SDS011;14871;52.702;5.230;2023-03-01T00:16:01;20.92;;;16.77;;
27412;SDS011;14871;52.702;5.230;2023-03-01T00:18:28;21.08;;;16.52;;
27412;SDS011;14871;52.702;5.230;2023-03-01T00:20:54;24.67;;;17.80;;
27412;SDS011;14871;52.702;5.230;2023-03-01T00:23:20;23.88;;;16.55;;
27412;SDS011;14871;52.702;5.230;2023-03-01T00:25:47;22.88;;;17.25;;
27412;SDS011;14871;52.702;5.230;2023-03-01T00:28:13;26.10;;;17.40;;
27412;SDS011;14871;52.702;5.230;2023-03-01T00:30:38;21.08;;;16.95;;
27412;SDS011;14871;52.702;5.230;2023-03-01T00:33:04;25.20;;;17.38;;
27412;SDS011;14871;52.702;5.230;2023-03-01T00:35:31;23.67;;;17.08;;
27412;SDS011;14871;52.702;5.230;2023-03-01T00:37:57;21.70;;;17.08;;
27412;SDS011;14871;52.702;5.230;2023-03-01T00:40:24;21.70;;;16.98;;
27412;SDS011;14871;52.702;5.230;2023-03-01T00:42:51;23.52;;;16.98;;
27412;SDS011;14871;52.702;5.230;2023-03-01T00:45:16;20.52;;;16.60;;
27412;SDS011;14871;52.702;5.230;2023-03-01T00:47:42;23.27;;;17.58;;
27412;SDS011;14871;52.702;5.230;2023-03-01T00:50:09;22.30;;;17.20;;
27412;SDS011;14871;52.702;5.230;2023-03-01T00:52:36;25.13;;;18.40;;
27412;SDS011;14871;52.702;5.230;2023-03-01T00:55:01;23.60;;;17.85;;
27412;SDS011;14871;52.702;5.230;2023-03-01T00:57:27;23.77;;;16.75;;
27412;SDS011;14871;52.702;5.230;2023-03-01T00:59:53;24.40;;;17.50;;
27412;SDS011;14871;52.702;5.230;2023-03-01T01:02:19;24.13;;;17.20;;
27412;SDS011;14871;52.702;5.230;2023-03-01T01:04:45;23.00;;;17.48;;
27412;SDS011;14871;52.702;5.230;2023-03-01T01:07:11;24.05;;;17.75;;
27412;SDS011;14871;52.702;5.230;2023-03-01T01:09:37;23.08;;;16.75;;
27412;SDS011;14871;52.702;5.230;2023-03-01T01:12:03;23.27;;;17.92;;
27412;SDS011;14871;52.702;5.230;2023-03-01T01:14:29;26.75;;;17.98;;
27412;SDS011;14871;52.702;5.230;2023-03-01T01:16:54;22.08;;;16.42;;
27412;SDS011;14871;52.702;5.230;2023-03-01T01:19:20;21.65;;;17.83;;
27412;SDS011;14871;52.702;5.230;2023-03-01T01:21:46;20.20;;;16.55;;
27412;SDS011;14871;52.702;5.230;2023-03-01T01:24:13;24.85;;;18.60;;
27412;SDS011;14871;52.702;5.230;2023-03-01T01:26:39;22.52;;;17.80;;
27412;SDS011;14871;52.702;5.230;2023-03-01T01:29:05;24.95;;;16.92;;
27412;SDS011;14871;52.702;5.230;2023-03-01T01:31:32;23.27;;;16.92;;
27412;SDS011;14871;52.702;5.230;2023-03-01T01:33:59;23.02;;;16.80;;
27412;SDS011;14871;52.702;5.230;2023-03-01T01:36:26;22.17;;;16.45;;
27412;SDS011;14871;52.702;5.230;2023-03-01T01:38:52;24.27;;;17.52;;
27412;SDS011;14871;52.702;5.230;2023-03-01T01:41:19;21.48;;;16.95;;
27412;SDS011;14871;52.702;5.230;2023-03-01T01:43:49;22.77;;;17.10;;
27412;SDS011;14871;52.702;5.230;2023-03-01T01:46:37;23.52;;;16.77;;
27412;SDS011;14871;52.702;5.230;2023-03-01T01:51:42;22.52;;;15.93;;
27412;SDS011;14871;52.702;5.230;2023-03-01T01:54:27;23.92;;;17.75;;
27412;SDS011;14871;52.702;5.230;2023-03-01T01:56:58;20.20;;;15.88;;
27412;SDS011;14871;52.702;5.230;2023-03-01T01:59:28;21.52;;;17.20;;
27412;SDS011;14871;52.702;5.230;2023-03-01T02:01:57;26.23;;;17.30;;
27412;SDS011;14871;52.702;5.230;2023-03-01T02:04:26;25.23;;;17.67;;
27412;SDS011;14871;52.702;5.230;2023-03-01T02:06:55;22.70;;;17.42;;
27412;SDS011;14871;52.702;5.230;2023-03-01T02:09:26;22.02;;;15.82;;
27412;SDS011;14871;52.702;5.230;2023-03-01T02:11:52;22.13;;;16.63;;
27412;SDS011;14871;52.702;5.230;2023-03-01T02:14:18;20.92;;;16.15;;
27412;SDS011;14871;52.702;5.230;2023-03-01T02:16:44;21.52;;;16.38;;
27412;SDS011;14871;52.702;5.230;2023-03-01T02:19:13;23.90;;;16.05;;
27412;SDS011;14871;52.702;5.230;2023-03-01T02:21:56;20.83;;;16.23;;
27412;SDS011;14871;52.702;5.230;2023-03-01T02:24:34;20.20;;;15.65;;
27412;SDS011;14871;52.702;5.230;2023-03-01T02:27:02;17.90;;;14.90;;
27412;SDS011;14871;52.702;5.230;2023-03-01T02:29:28;18.45;;;14.48;;
27412;SDS011;14871;52.702;5.230;2023-03-01T02:31:54;20.35;;;15.18;;
27412;SDS011;14871;52.702;5.230;2023-03-01T02:34:23;18.88;;;15.10;;
27412;SDS011;14871;52.702;5.230;2023-03-01T02:36:59;19.98;;;15.98;;
27412;SDS011;14871;52.702;5.230;2023-03-01T02:39:48;18.85;;;14.35;;
27412;SDS011;14871;52.702;5.230;2023-03-01T02:42:16;18.63;;;15.32;;
27412;SDS011;14871;52.702;5.230;2023-03-01T02:44:49;19.58;;;15.57;;
27412;SDS011;14871;52.702;5.230;2023-03-01T02:47:15;21.00;;;15.65;;
27412;SDS011;14871;52.702;5.230;2023-03-01T02:49:40;19.45;;;14.75;;
27412;SDS011;14871;52.702;5.230;2023-03-01T02:55:10;20.42;;;15.32;;
27412;SDS011;14871;52.702;5.230;2023-03-01T02:57:38;20.02;;;15.75;;
27412;SDS011;14871;52.702;5.230;2023-03-01T03:00:08;21.50;;;14.93;;
27412;SDS011;14871;52.702;5.230;2023-03-01T03:02:44;20.45;;;15.88;;
27412;SDS011;14871;52.702;5.230;2023-03-01T03:05:15;21.25;;;16.10;;
27412;SDS011;14871;52.702;5.230;2023-03-01T03:07:43;21.10;;;16.38;;
27412;SDS011;14871;52.702;5.230;2023-03-01T03:10:12;20.58;;;15.80;;
27412;SDS011;14871;52.702;5.230;2023-03-01T03:12:49;20.50;;;16.20;;
27412;SDS011;14871;52.702;5.230;2023-03-01T03:15:36;20.58;;;14.57;;
27412;SDS011;14871;52.702;5.230;2023-03-01T03:18:04;21.90;;;16.15;;
27412;SDS011;14871;52.702;5.230;2023-03-01T03:20:32;20.60;;;16.25;;
27412;SDS011;14871;52.702;5.230;2023-03-01T03:22:58;23.35;;;16.75;;
27412;SDS011;14871;52.702;5.230;2023-03-01T03:25:25;23.55;;;16.77;;
27412;SDS011;14871;52.702;5.230;2023-03-01T03:27:52;19.70;;;15.88;;
27412;SDS011;14871;52.702;5.230;2023-03-01T03:30:21;19.75;;;14.45;;
27412;SDS011;14871;52.702;5.230;2023-03-01T03:32:48;16.35;;;13.40;;
27412;SDS011;14871;52.702;5.230;2023-03-01T03:35:18;17.55;;;13.25;;
27412;SDS011;14871;52.702;5.230;2023-03-01T03:37:44;18.92;;;14.27;;
27412;SDS011;14871;52.702;5.230;2023-03-01T03:40:38;24.98;;;13.73;;
27412;SDS011;14871;52.702;5.230;2023-03-01T03:43:07;35.30;;;14.38;;
27412;SDS011;14871;52.702;5.230;2023-03-01T03:45:44;17.33;;;14.25;;
27412;SDS011;14871;52.702;5.230;2023-03-01T03:48:11;16.40;;;13.07;;
27412;SDS011;14871;52.702;5.230;2023-03-01T03:50:38;15.93;;;12.82;;
27412;SDS011;14871;52.702;5.230;2023-03-01T03:53:06;14.43;;;12.57;;
27412;SDS011;14871;52.702;5.230;2023-03-01T03:55:34;13.73;;;12.18;;
27412;SDS011;14871;52.702;5.230;2023-03-01T03:58:01;13.80;;;12.07;;
27412;SDS011;14871;52.702;5.230;2023-03-01T04:00:32;13.90;;;12.45;;
27412;SDS011;14871;52.702;5.230;2023-03-01T04:03:02;15.48;;;12.05;;
27412;SDS011;14871;52.702;5.230;2023-03-01T04:05:29;15.32;;;11.82;;
27412;SDS011;14871;52.702;5.230;2023-03-01T04:07:55;13.70;;;12.00;;
27412;SDS011;14871;52.702;5.230;2023-03-01T04:10:31;16.30;;;12.55;;
27412;SDS011;14871;52.702;5.230;2023-03-01T04:13:02;16.35;;;11.90;;
27412;SDS011;14871;52.702;5.230;2023-03-01T04:15:29;15.73;;;12.68;;
27412;SDS011;14871;52.702;5.230;2023-03-01T04:17:57;15.55;;;12.27;;
27412;SDS011;14871;52.702;5.230;2023-03-01T04:20:26;16.13;;;12.50;;
27412;SDS011;14871;52.702;5.230;2023-03-01T04:23:04;16.50;;;12.77;;
27412;SDS011;14871;52.702;5.230;2023-03-01T04:28:19;15.70;;;12.90;;
27412;SDS011;14871;52.702;5.230;2023-03-01T04:30:45;16.98;;;13.43;;
27412;SDS011;14871;52.702;5.230;2023-03-01T04:33:12;17.73;;;12.88;;
27412;SDS011;14871;52.702;5.230;2023-03-01T04:35:38;14.98;;;12.70;;
27412;SDS011;14871;52.702;5.230;2023-03-01T04:38:05;18.55;;;14.07;;
27412;SDS011;14871;52.702;5.230;2023-03-01T04:40:31;16.02;;;13.55;;
27412;SDS011;14871;52.702;5.230;2023-03-01T04:42:57;17.50;;;14.10;;
27412;SDS011;14871;52.702;5.230;2023-03-01T04:45:23;28.88;;;13.32;;
27412;SDS011;14871;52.702;5.230;2023-03-01T04:47:48;20.63;;;13.10;;
27412;SDS011;14871;52.702;5.230;2023-03-01T04:50:17;15.63;;;13.20;;
27412;SDS011;14871;52.702;5.230;2023-03-01T04:52:45;17.02;;;13.35;;
27412;SDS011;14871;52.702;5.230;2023-03-01T04:55:12;16.38;;;13.20;;
27412;SDS011;14871;52.702;5.230;2023-03-01T04:57:38;15.75;;;12.80;;
27412;SDS011;14871;52.702;5.230;2023-03-01T05:00:04;46.90;;;14.07;;
27412;SDS011;14871;52.702;5.230;2023-03-01T05:03:05;15.52;;;11.88;;
27412;SDS011;14871;52.702;5.230;2023-03-01T05:05:31;21.95;;;11.98;;
27412;SDS011;14871;52.702;5.230;2023-03-01T05:08:00;17.00;;;12.60;;
27412;SDS011;14871;52.702;5.230;2023-03-01T05:10:28;26.45;;;12.25;;
27412;SDS011;14871;52.702;5.230;2023-03-01T05:12:56;17.48;;;12.57;;
27412;SDS011;14871;52.702;5.230;2023-03-01T05:15:22;32.20;;;12.02;;
27412;SDS011;14871;52.702;5.230;2023-03-01T05:17:52;16.60;;;12.70;;
27412;SDS011;14871;52.702;5.230;2023-03-01T05:20:19;19.65;;;13.18;;
27412;SDS011;14871;52.702;5.230;2023-03-01T05:22:47;19.50;;;15.35;;
27412;SDS011;14871;52.702;5.230;2023-03-01T05:25:14;21.15;;;14.65;;
27412;SDS011;14871;52.702;5.230;2023-03-01T05:27:39;21.45;;;16.27;;
27412;SDS011;14871;52.702;5.230;2023-03-01T05:30:05;21.98;;;15.68;;
27412;SDS011;14871;52.702;5.230;2023-03-01T05:32:42;21.23;;;15.63;;
27412;SDS011;14871;52.702;5.230;2023-03-01T05:35:12;19.98;;;14.15;;
27412;SDS011;14871;52.702;5.230;2023-03-01T05:37:40;18.77;;;14.85;;
27412;SDS011;14871;52.702;5.230;2023-03-01T05:40:11;19.25;;;14.38;;
27412;SDS011;14871;52.702;5.230;2023-03-01T05:42:44;21.83;;;16.45;;
27412;SDS011;14871;52.702;5.230;2023-03-01T05:45:12;20.83;;;16.13;;
27412;SDS011;14871;52.702;5.230;2023-03-01T05:47:39;25.35;;;15.85;;
27412;SDS011;14871;52.702;5.230;2023-03-01T05:50:18;31.02;;;14.60;;
27412;SDS011;14871;52.702;5.230;2023-03-01T05:52:46;21.95;;;13.88;;
27412;SDS011;14871;52.702;5.230;2023-03-01T05:55:14;25.80;;;12.95;;
27412;SDS011;14871;52.702;5.230;2023-03-01T05:57:41;20.15;;;13.73;;
27412;SDS011;14871;52.702;5.230;2023-03-01T06:00:07;15.98;;;13.55;;
27412;SDS011;14871;52.702;5.230;2023-03-01T06:02:34;13.27;;;11.93;;
27412;SDS011;14871;52.702;5.230;2023-03-01T06:04:59;14.57;;;13.05;;
27412;SDS011;14871;52.702;5.230;2023-03-01T06:07:25;16.15;;;13.43;;
27412;SDS011;14871;52.702;5.230;2023-03-01T06:09:51;17.17;;;13.60;;
27412;SDS011;14871;52.702;5.230;2023-03-01T06:12:16;16.75;;;13.85;;
27412;SDS011;14871;52.702;5.230;2023-03-01T06:14:42;16.27;;;13.77;;
27412;SDS011;14871;52.702;5.230;2023-03-01T06:17:08;15.27;;;13.55;;
27412;SDS011;14871;52.702;5.230;2023-03-01T06:19:33;15.85;;;12.82;;
27412;SDS011;14871;52.702;5.230;2023-03-01T06:21:59;16.42;;;13.88;;
27412;SDS011;14871;52.702;5.230;2023-03-01T06:24:25;15.52;;;13.13;;
27412;SDS011;14871;52.702;5.230;2023-03-01T06:26:52;17.50;;;13.75;;
27412;SDS011;14871;52.702;5.230;2023-03-01T06:29:18;17.83;;;13.73;;
27412;SDS011;14871;52.702;5.230;2023-03-01T06:31:43;16.77;;;13.00;;
27412;SDS011;14871;52.702;5.230;2023-03-01T06:34:10;17.55;;;13.45;;
27412;SDS011;14871;52.702;5.230;2023-03-01T06:36:38;16.52;;;12.38;;
27412;SDS011;14871;52.702;5.230;2023-03-01T06:39:04;16.25;;;12.65;;
27412;SDS011;14871;52.702;5.230;2023-03-01T06:41:30;17.20;;;12.73;;
27412;SDS011;14871;52.702;5.230;2023-03-01T06:43:56;14.88;;;12.98;;
27412;SDS011;14871;52.702;5.230;2023-03-01T06:46:21;15.48;;;12.55;;
27412;SDS011;14871;52.702;5.230;2023-03-01T06:48:47;14.50;;;12.40;;
27412;SDS011;14871;52.702;5.230;2023-03-01T06:51:13;16.55;;;12.75;;
27412;SDS011;14871;52.702;5.230;2023-03-01T06:53:38;17.17;;;13.35;;
27412;SDS011;14871;52.702;5.230;2023-03-01T06:56:04;14.70;;;12.38;;
27412;SDS011;14871;52.702;5.230;2023-03-01T06:58:29;14.60;;;12.27;;
27412;SDS011;14871;52.702;5.230;2023-03-01T07:00:55;14.48;;;12.60;;
27412;SDS011;14871;52.702;5.230;2023-03-01T07:03:21;16.83;;;13.30;;
27412;SDS011;14871;52.702;5.230;2023-03-01T07:05:50;16.80;;;12.80;;
27412;SDS011;14871;52.702;5.230;2023-03-01T07:08:18;18.60;;;14.35;;
27412;SDS011;14871;52.702;5.230;2023-03-01T07:10:45;26.25;;;12.50;;
27412;SDS011;14871;52.702;5.230;2023-03-01T07:13:11;80.63;;;14.35;;
27412;SDS011;14871;52.702;5.230;2023-03-01T07:15:36;40.20;;;14.20;;
27412;SDS011;14871;52.702;5.230;2023-03-01T07:18:02;42.53;;;15.20;;
27412;SDS011;14871;52.702;5.230;2023-03-01T07:20:28;53.67;;;16.05;;
27412;SDS011;14871;52.702;5.230;2023-03-01T07:22:54;36.58;;;16.17;;
27412;SDS011;14871;52.702;5.230;2023-03-01T07:25:20;37.53;;;16.42;;
27412;SDS011;14871;52.702;5.230;2023-03-01T07:27:50;33.20;;;16.25;;
27412;SDS011;14871;52.702;5.230;2023-03-01T07:30:16;109.82;;;18.52;;
27412;SDS011;14871;52.702;5.230;2023-03-01T07:32:42;92.43;;;17.92;;
27412;SDS011;14871;52.702;5.230;2023-03-01T07:35:07;98.63;;;18.38;;
27412;SDS011;14871;52.702;5.230;2023-03-01T07:37:33;115.00;;;19.30;;
27412;SDS011;14871;52.702;5.230;2023-03-01T07:39:59;121.97;;;19.52;;
27412;SDS011;14871;52.702;5.230;2023-03-01T07:42:24;103.25;;;19.30;;
27412;SDS011;14871;52.702;5.230;2023-03-01T07:44:50;130.80;;;19.48;;
27412;SDS011;14871;52.702;5.230;2023-03-01T07:47:15;134.25;;;20.25;;
27412;SDS011;14871;52.702;5.230;2023-03-01T07:49:41;139.45;;;20.23;;
27412;SDS011;14871;52.702;5.230;2023-03-01T07:52:08;144.15;;;20.70;;
27412;SDS011;14871;52.702;5.230;2023-03-01T07:54:35;173.55;;;22.58;;
27412;SDS011;14871;52.702;5.230;2023-03-01T07:57:01;166.00;;;21.27;;
27412;SDS011;14871;52.702;5.230;2023-03-01T07:59:26;237.82;;;24.35;;
27412;SDS011;14871;52.702;5.230;2023-03-01T08:01:54;209.07;;;23.35;;
27412;SDS011;14871;52.702;5.230;2023-03-01T08:04:20;195.40;;;24.67;;
27412;SDS011;14871;52.702;5.230;2023-03-01T08:06:47;262.45;;;25.55;;
27412;SDS011;14871;52.702;5.230;2023-03-01T08:09:12;130.90;;;22.65;;
27412;SDS011;14871;52.702;5.230;2023-03-01T08:11:38;181.27;;;25.45;;
27412;SDS011;14871;52.702;5.230;2023-03-01T08:14:03;228.25;;;28.05;;
27412;SDS011;14871;52.702;5.230;2023-03-01T08:16:29;94.20;;;23.95;;
27412;SDS011;14871;52.702;5.230;2023-03-01T08:18:54;80.85;;;23.30;;
27412;SDS011;14871;52.702;5.230;2023-03-01T08:21:21;165.52;;;26.98;;
27412;SDS011;14871;52.702;5.230;2023-03-01T08:23:47;82.32;;;23.77;;
27412;SDS011;14871;52.702;5.230;2023-03-01T08:26:20;71.05;;;23.95;;
27412;SDS011;14871;52.702;5.230;2023-03-01T08:28:46;109.75;;;25.48;;
27412;SDS011;14871;52.702;5.230;2023-03-01T08:31:26;112.72;;;24.23;;
27412;SDS011;14871;52.702;5.230;2023-03-01T08:33:58;81.88;;;24.10;;
27412;SDS011;14871;52.702;5.230;2023-03-01T08:36:26;81.80;;;24.52;;
27412;SDS011;14871;52.702;5.230;2023-03-01T08:38:53;80.65;;;25.90;;
27412;SDS011;14871;52.702;5.230;2023-03-01T08:41:19;49.78;;;22.73;;
27412;SDS011;14871;52.702;5.230;2023-03-01T08:43:45;46.08;;;22.73;;
27412;SDS011;14871;52.702;5.230;2023-03-01T08:46:11;36.40;;;22.90;;
27412;SDS011;14871;52.702;5.230;2023-03-01T08:48:38;36.42;;;21.92;;
27412;SDS011;14871;52.702;5.230;2023-03-01T08:51:08;41.70;;;23.45;;
27412;SDS011;14871;52.702;5.230;2023-03-01T08:53:38;41.78;;;22.70;;
27412;SDS011;14871;52.702;5.230;2023-03-01T08:56:05;30.77;;;22.55;;
27412;SDS011;14871;52.702;5.230;2023-03-01T08:58:31;32.90;;;23.13;;
27412;SDS011;14871;52.702;5.230;2023-03-01T09:00:57;29.20;;;22.05;;
27412;SDS011;14871;52.702;5.230;2023-03-01T09:03:23;32.95;;;21.55;;
27412;SDS011;14871;52.702;5.230;2023-03-01T09:05:49;34.78;;;22.10;;
27412;SDS011;14871;52.702;5.230;2023-03-01T09:08:16;34.40;;;22.45;;
27412;SDS011;14871;52.702;5.230;2023-03-01T09:10:42;31.02;;;21.58;;
27412;SDS011;14871;52.702;5.230;2023-03-01T09:13:08;31.58;;;21.20;;
27412;SDS011;14871;52.702;5.230;2023-03-01T09:15:33;31.25;;;21.92;;
27412;SDS011;14871;52.702;5.230;2023-03-01T09:18:01;27.60;;;21.27;;
27412;SDS011;14871;52.702;5.230;2023-03-01T09:20:27;27.58;;;22.27;;
27412;SDS011;14871;52.702;5.230;2023-03-01T09:22:52;27.27;;;21.67;;
27412;SDS011;14871;52.702;5.230;2023-03-01T09:25:18;27.02;;;21.52;;
27412;SDS011;14871;52.702;5.230;2023-03-01T09:27:43;28.33;;;22.42;;
27412;SDS011;14871;52.702;5.230;2023-03-01T09:30:09;22.83;;;19.75;;
27412;SDS011;14871;52.702;5.230;2023-03-01T09:32:35;23.17;;;19.02;;
27412;SDS011;14871;52.702;5.230;2023-03-01T09:35:01;24.50;;;19.40;;
27412;SDS011;14871;52.702;5.230;2023-03-01T09:37:29;24.33;;;19.95;;
27412;SDS011;14871;52.702;5.230;2023-03-01T09:39:56;21.85;;;19.30;;
27412;SDS011;14871;52.702;5.230;2023-03-01T09:42:22;24.33;;;20.25;;
27412;SDS011;14871;52.702;5.230;2023-03-01T09:44:49;22.10;;;19.70;;
27412;SDS011;14871;52.702;5.230;2023-03-01T09:47:22;23.50;;;20.60;;
27412;SDS011;14871;52.702;5.230;2023-03-01T09:49:55;23.70;;;20.45;;
27412;SDS011;14871;52.702;5.230;2023-03-01T09:52:29;22.38;;;20.08;;
27412;SDS011;14871;52.702;5.230;2023-03-01T09:55:05;24.52;;;20.52;;
27412;SDS011;14871;52.702;5.230;2023-03-01T10:03:03;25.35;;;19.95;;
27412;SDS011;14871;52.702;5.230;2023-03-01T10:08:40;22.92;;;20.25;;
27412;SDS011;14871;52.702;5.230;2023-03-01T10:11:19;21.20;;;19.05;;
27412;SDS011;14871;52.702;5.230;2023-03-01T10:14:09;21.63;;;19.45;;
27412;SDS011;14871;52.702;5.230;2023-03-01T10:19:46;19.60;;;17.45;;
27412;SDS011;14871;52.702;5.230;2023-03-01T10:22:19;20.10;;;17.88;;
27412;SDS011;14871;52.702;5.230;2023-03-01T10:24:50;19.35;;;17.33;;
27412;SDS011;14871;52.702;5.230;2023-03-01T10:30:29;19.80;;;17.90;;
27412;SDS011;14871;52.702;5.230;2023-03-01T10:33:01;17.40;;;15.70;;
27412;SDS011;14871;52.702;5.230;2023-03-01T10:35:29;17.15;;;14.50;;
27412;SDS011;14871;52.702;5.230;2023-03-01T10:38:04;14.27;;;12.88;;
27412;SDS011;14871;52.702;5.230;2023-03-01T10:40:33;14.98;;;13.48;;
27412;SDS011;14871;52.702;5.230;2023-03-01T10:43:04;15.77;;;14.20;;
27412;SDS011;14871;52.702;5.230;2023-03-01T10:45:37;15.35;;;13.85;;
27412;SDS011;14871;52.702;5.230;2023-03-01T10:48:21;14.43;;;13.05;;
27412;SDS011;14871;52.702;5.230;2023-03-01T10:51:04;14.48;;;12.23;;
27412;SDS011;14871;52.702;5.230;2023-03-01T10:53:39;11.77;;;10.57;;
27412;SDS011;14871;52.702;5.230;2023-03-01T10:56:13;12.15;;;11.05;;
27412;SDS011;14871;52.702;5.230;2023-03-01T11:05:01;10.40;;;9.38;;
27412;SDS011;14871;52.702;5.230;2023-03-01T11:10:30;10.73;;;9.73;;
27412;SDS011;14871;52.702;5.230;2023-03-01T11:13:08;11.60;;;10.43;;
27412;SDS011;14871;52.702;5.230;2023-03-01T11:15:41;11.40;;;9.40;;
27412;SDS011;14871;52.702;5.230;2023-03-01T11:18:20;11.60;;;9.23;;
27412;SDS011;14871;52.702;5.230;2023-03-01T11:20:47;9.90;;;8.90;;
27412;SDS011;14871;52.702;5.230;2023-03-01T11:23:16;9.65;;;7.90;;
27412;SDS011;14871;52.702;5.230;2023-03-01T11:25:43;9.02;;;7.45;;
27412;SDS011;14871;52.702;5.230;2023-03-01T11:28:14;9.60;;;8.70;;
27412;SDS011;14871;52.702;5.230;2023-03-01T11:33:24;10.63;;;8.45;;
27412;SDS011;14871;52.702;5.230;2023-03-01T11:38:43;9.65;;;8.65;;
27412;SDS011;14871;52.702;5.230;2023-03-01T11:41:23;10.25;;;9.30;;
27412;SDS011;14871;52.702;5.230;2023-03-01T11:44:05;11.43;;;10.23;;
27412;SDS011;14871;52.702;5.230;2023-03-01T11:49:36;12.77;;;11.48;;
27412;SDS011;14871;52.702;5.230;2023-03-01T11:54:40;11.73;;;10.50;;
27412;SDS011;14871;52.702;5.230;2023-03-01T12:03:19;11.38;;;10.27;;
27412;SDS011;14871;52.702;5.230;2023-03-01T12:05:57;12.33;;;10.20;;
27412;SDS011;14871;52.702;5.230;2023-03-01T12:11:15;11.70;;;10.50;;
27412;SDS011;14871;52.702;5.230;2023-03-01T12:14:23;15.05;;;11.73;;
27412;SDS011;14871;52.702;5.230;2023-03-01T12:30:29;15.00;;;12.98;;
27412;SDS011;14871;52.702;5.230;2023-03-01T12:44:11;14.43;;;12.88;;
27412;SDS011;14871;52.702;5.230;2023-03-01T12:49:22;17.05;;;13.40;;
27412;SDS011;14871;52.702;5.230;2023-03-01T12:54:29;16.10;;;14.10;;
27412;SDS011;14871;52.702;5.230;2023-03-01T12:56:57;16.83;;;14.45;;
27412;SDS011;14871;52.702;5.230;2023-03-01T12:59:58;16.80;;;14.93;;
27412;SDS011;14871;52.702;5.230;2023-03-01T13:02:48;18.00;;;14.43;;
27412;SDS011;14871;52.702;5.230;2023-03-01T13:05:40;16.47;;;14.10;;
27412;SDS011;14871;52.702;5.230;2023-03-01T13:08:19;15.82;;;14.23;;
27412;SDS011;14871;52.702;5.230;2023-03-01T13:11:11;15.25;;;13.65;;
27412;SDS011;14871;52.702;5.230;2023-03-01T13:13:42;15.40;;;13.88;;
27412;SDS011;14871;52.702;5.230;2023-03-01T13:16:21;15.18;;;13.57;;
27412;SDS011;14871;52.702;5.230;2023-03-01T13:19:36;15.20;;;13.60;;
27412;SDS011;14871;52.702;5.230;2023-03-01T13:21:57;18.00;;;14.20;;
27412;SDS011;14871;52.702;5.230;2023-03-01T13:24:24;18.95;;;15.43;;
27412;SDS011;14871;52.702;5.230;2023-03-01T13:34:54;16.42;;;14.38;;
27412;SDS011;14871;52.702;5.230;2023-03-01T13:37:28;15.88;;;14.25;;
27412;SDS011;14871;52.702;5.230;2023-03-01T13:39:59;15.60;;;14.00;;
27412;SDS011;14871;52.702;5.230;2023-03-01T13:42:46;15.85;;;14.13;;
27412;SDS011;14871;52.702;5.230;2023-03-01T13:45:15;16.00;;;13.88;;
27412;SDS011;14871;52.702;5.230;2023-03-01T13:47:48;16.58;;;14.13;;
27412;SDS011;14871;52.702;5.230;2023-03-01T13:50:21;15.75;;;14.15;;
27412;SDS011;14871;52.702;5.230;2023-03-01T13:52:53;15.38;;;13.77;;
27412;SDS011;14871;52.702;5.230;2023-03-01T13:55:30;16.38;;;13.63;;
27412;SDS011;14871;52.702;5.230;2023-03-01T13:57:59;16.55;;;14.07;;
27412;SDS011;14871;52.702;5.230;2023-03-01T14:03:02;15.80;;;13.85;;
27412;SDS011;14871;52.702;5.230;2023-03-01T14:05:29;15.77;;;13.80;;
27412;SDS011;14871;52.702;5.230;2023-03-01T14:07:55;16.45;;;13.68;;
27412;SDS011;14871;52.702;5.230;2023-03-01T14:10:20;16.40;;;14.10;;
27412;SDS011;14871;52.702;5.230;2023-03-01T14:15:36;16.50;;;13.88;;
27412;SDS011;14871;52.702;5.230;2023-03-01T14:18:24;17.25;;;14.15;;
27412;SDS011;14871;52.702;5.230;2023-03-01T14:21:06;17.00;;;15.18;;
27412;SDS011;14871;52.702;5.230;2023-03-01T14:23:33;18.08;;;14.65;;
27412;SDS011;14871;52.702;5.230;2023-03-01T14:26:00;15.85;;;14.07;;
27412;SDS011;14871;52.702;5.230;2023-03-01T14:28:27;18.63;;;14.68;;
27412;SDS011;14871;52.702;5.230;2023-03-01T14:30:55;15.55;;;14.05;;
27412;SDS011;14871;52.702;5.230;2023-03-01T14:33:26;15.63;;;14.05;;
27412;SDS011;14871;52.702;5.230;2023-03-01T14:36:10;16.92;;;13.90;;
27412;SDS011;14871;52.702;5.230;2023-03-01T14:38:38;17.58;;;14.40;;
27412;SDS011;14871;52.702;5.230;2023-03-01T14:41:09;15.57;;;14.05;;
27412;SDS011;14871;52.702;5.230;2023-03-01T14:46:26;15.52;;;13.95;;
27412;SDS011;14871;52.702;5.230;2023-03-01T14:49:19;15.00;;;13.32;;
27412;SDS011;14871;52.702;5.230;2023-03-01T14:52:33;16.20;;;13.73;;
27412;SDS011;14871;52.702;5.230;2023-03-01T14:54:47;15.32;;;13.70;;
27412;SDS011;14871;52.702;5.230;2023-03-01T14:57:17;16.13;;;14.25;;
27412;SDS011;14871;52.702;5.230;2023-03-01T14:59:46;15.45;;;13.85;;
27412;SDS011;14871;52.702;5.230;2023-03-01T15:02:17;17.38;;;14.55;;
27412;SDS011;14871;52.702;5.230;2023-03-01T15:04:52;16.35;;;14.52;;
27412;SDS011;14871;52.702;5.230;2023-03-01T15:07:21;16.42;;;14.18;;
27412;SDS011;14871;52.702;5.230;2023-03-01T15:09:51;16.80;;;14.23;;
27412;SDS011;14871;52.702;5.230;2023-03-01T15:12:36;15.63;;;14.02;;
27412;SDS011;14871;52.702;5.230;2023-03-01T15:17:56;16.20;;;14.48;;
27412;SDS011;14871;52.702;5.230;2023-03-01T15:20:26;15.63;;;14.02;;
27412;SDS011;14871;52.702;5.230;2023-03-01T15:22:54;17.10;;;14.52;;
27412;SDS011;14871;52.702;5.230;2023-03-01T15:25:27;17.52;;;14.93;;
27412;SDS011;14871;52.702;5.230;2023-03-01T15:27:55;17.15;;;15.45;;
27412;SDS011;14871;52.702;5.230;2023-03-01T15:30:35;16.98;;;14.35;;
27412;SDS011;14871;52.702;5.230;2023-03-01T15:35:52;20.27;;;14.77;;
27412;SDS011;14871;52.702;5.230;2023-03-01T15:44:47;16.83;;;13.38;;
27412;SDS011;14871;52.702;5.230;2023-03-01T15:46:55;17.02;;;13.65;;
27412;SDS011;14871;52.702;5.230;2023-03-01T15:51:53;14.63;;;13.00;;
27412;SDS011;14871;52.702;5.230;2023-03-01T15:54:21;15.30;;;13.35;;
27412;SDS011;14871;52.702;5.230;2023-03-01T15:56:48;18.67;;;13.43;;
27412;SDS011;14871;52.702;5.230;2023-03-01T15:59:16;14.43;;;12.93;;
27412;SDS011;14871;52.702;5.230;2023-03-01T16:01:43;15.05;;;13.15;;
27412;SDS011;14871;52.702;5.230;2023-03-01T16:04:13;15.50;;;13.90;;
27412;SDS011;14871;52.702;5.230;2023-03-01T16:06:46;15.10;;;13.43;;
27412;SDS011;14871;52.702;5.230;2023-03-01T16:09:27;15.57;;;13.70;;
27412;SDS011;14871;52.702;5.230;2023-03-01T16:11:53;15.47;;;13.80;;
27412;SDS011;14871;52.702;5.230;2023-03-01T16:14:19;15.63;;;13.70;;
27412;SDS011;14871;52.702;5.230;2023-03-01T16:16:45;18.05;;;14.85;;
27412;SDS011;14871;52.702;5.230;2023-03-01T16:19:13;17.55;;;14.18;;
27412;SDS011;14871;52.702;5.230;2023-03-01T16:21:39;17.45;;;15.35;;
27412;SDS011;14871;52.702;5.230;2023-03-01T16:24:07;17.67;;;14.35;;
27412;SDS011;14871;52.702;5.230;2023-03-01T16:26:33;20.38;;;15.38;;
27412;SDS011;14871;52.702;5.230;2023-03-01T16:28:59;17.70;;;14.63;;